Time;durP1;ratioP1;P1;durP2;ratioP2;P2;SDS_P1;SDS_P2;PMS_P1;PMS_P2;Temp;Humidity;BMP_temperature;BMP_pressure;BME280_temperature;BME280_humidity;BME280_pressure;Samples;Min_cycle;Max_cycle;Signal;HPM_P1;HPM_P2
2022/10/26 00:02:24;;;;;;;7.07;2.90;;;;;;;;;;5026278;28;20456;-76
2022/10/26 00:05:09;;;;;;;7.90;3.42;;;;;;;;;;5026899;28;20127;-75
2022/10/26 00:07:54;;;;;;;8.25;2.42;;;;;;;;;;5027971;28;20060;-76
2022/10/26 00:10:39;;;;;;;20.60;2.58;;;;;;;;;;5026638;28;20044;-79
2022/10/26 00:13:25;;;;;;;7.55;2.80;;;;;;;;;;5028922;28;20508;-75
2022/10/26 00:16:15;;;;;;;7.38;2.85;;;;;;;;;;5024869;28;20047;-78
2022/10/26 00:19:00;;;;;;;6.75;3.38;;;;;;;;;;5034385;28;20100;-73
2022/10/26 00:21:46;;;;;;;5.68;2.40;;;;;;;;;;5025992;28;20028;-74
2022/10/26 00:24:31;;;;;;;6.25;2.97;;;;;;;;;;5035603;28;20503;-74
2022/10/26 00:27:16;;;;;;;6.45;2.25;;;;;;;;;;5029122;28;20025;-74
2022/10/26 00:30:02;;;;;;;9.00;2.50;;;;;;;;;;5015064;28;20041;-75
2022/10/26 00:32:47;;;;;;;9.18;3.63;;;;;;;;;;5014590;28;20033;-73
2022/10/26 00:35:33;;;;;;;12.93;2.60;;;;;;;;;;5029750;28;20017;-77
2022/10/26 00:38:18;;;;;;;8.77;2.90;;;;;;;;;;5031150;28;20128;-75
2022/10/26 00:41:03;;;;;;;8.05;2.38;;;;;;;;;;5027716;28;20079;-69
2022/10/26 00:43:49;;;;;;;10.27;2.65;;;;;;;;;;5013126;28;20309;-69
2022/10/26 00:46:36;;;;;;;7.03;2.28;;;;;;;;;;5026552;28;20038;-68
2022/10/26 00:49:21;;;;;;;9.10;2.88;;;;;;;;;;5027686;28;20030;-69
2022/10/26 00:52:07;;;;;;;8.95;3.45;;;;;;;;;;5028852;28;20048;-69
2022/10/26 00:54:53;;;;;;;8.93;2.97;;;;;;;;;;5025168;28;20118;-75
2022/10/26 00:57:38;;;;;;;6.38;2.60;;;;;;;;;;5029203;28;20036;-68
2022/10/26 01:00:23;;;;;;;6.78;2.67;;;;;;;;;;5033552;28;20108;-69
2022/10/26 01:03:09;;;;;;;5.88;3.03;;;;;;;;;;5014462;28;20843;-68
2022/10/26 01:05:56;;;;;;;5.25;1.98;;;;;;;;;;5031442;28;20132;-69
2022/10/26 01:08:42;;;;;;;7.10;2.38;;;;;;;;;;5028853;28;20071;-71
2022/10/26 01:11:28;;;;;;;6.53;2.47;;;;;;;;;;5030983;28;20514;-69
2022/10/26 01:14:15;;;;;;;8.65;2.72;;;;;;;;;;5034336;28;20071;-80
2022/10/26 01:17:09;;;;;;;6.50;2.42;;;;;;;;;;5014418;28;20040;-70
2022/10/26 01:19:56;;;;;;;5.32;2.20;;;;;;;;;;5026214;28;20116;-69
2022/10/26 01:22:45;;;;;;;7.85;3.42;;;;;;;;;;5027227;28;20295;-69
2022/10/26 01:25:49;;;;;;;4.43;2.53;;;;;;;;;;5027484;28;20025;-68
2022/10/26 01:28:53;;;;;;;5.57;2.45;;;;;;;;;;5028408;28;20109;-69
2022/10/26 01:31:49;;;;;;;9.40;2.80;;;;;;;;;;5042311;28;20392;-72
2022/10/26 01:34:43;;;;;;;10.70;2.88;;;;;;;;;;5028119;28;20753;-70
2022/10/26 01:37:30;;;;;;;6.93;3.05;;;;;;;;;;5040562;28;20029;-70
2022/10/26 01:40:28;;;;;;;10.05;2.38;;;;;;;;;;5029704;28;20088;-71
2022/10/26 01:43:14;;;;;;;6.90;2.22;;;;;;;;;;5012559;28;20059;-73
2022/10/26 01:46:00;;;;;;;6.20;2.42;;;;;;;;;;5013322;28;20536;-73
2022/10/26 01:48:48;;;;;;;11.50;3.20;;;;;;;;;;5029004;28;20025;-73
2022/10/26 01:51:34;;;;;;;4.32;2.17;;;;;;;;;;5030932;28;20033;-68
2022/10/26 01:54:19;;;;;;;6.45;2.10;;;;;;;;;;5014458;28;20155;-69
2022/10/26 01:57:06;;;;;;;12.13;2.63;;;;;;;;;;5025676;28;20419;-69
2022/10/26 02:00:10;;;;;;;7.95;2.42;;;;;;;;;;5016934;28;20080;-68
2022/10/26 02:03:08;;;;;;;12.43;2.72;;;;;;;;;;5027811;28;20036;-68
2022/10/26 02:05:54;;;;;;;9.10;2.33;;;;;;;;;;5034060;28;20079;-68
2022/10/26 02:09:02;;;;;;;6.38;2.63;;;;;;;;;;5026293;28;20905;-75
2022/10/26 02:11:50;;;;;;;8.63;2.83;;;;;;;;;;5006635;28;20140;-68
2022/10/26 02:14:40;;;;;;;12.15;3.15;;;;;;;;;;5018460;28;20113;-69
2022/10/26 02:17:27;;;;;;;9.73;2.80;;;;;;;;;;5035259;28;20029;-69
2022/10/26 02:20:16;;;;;;;4.68;2.25;;;;;;;;;;5033566;28;20468;-70
2022/10/26 02:23:05;;;;;;;6.97;2.60;;;;;;;;;;5016364;28;20018;-68
2022/10/26 02:25:53;;;;;;;13.60;2.50;;;;;;;;;;5042082;28;20029;-72
2022/10/26 02:28:40;;;;;;;8.98;2.60;;;;;;;;;;5030848;28;20030;-72
2022/10/26 02:31:25;;;;;;;6.55;2.92;;;;;;;;;;5031794;28;20037;-76
2022/10/26 02:34:12;;;;;;;5.28;2.28;;;;;;;;;;5033232;28;20383;-75
2022/10/26 02:36:59;;;;;;;8.50;3.28;;;;;;;;;;5025911;28;20293;-75
2022/10/26 02:39:47;;;;;;;6.95;2.70;;;;;;;;;;5024359;28;20025;-77
2022/10/26 02:42:32;;;;;;;8.02;2.50;;;;;;;;;;5034277;28;20057;-76
2022/10/26 02:45:23;;;;;;;8.82;3.00;;;;;;;;;;5028769;28;20021;-68
2022/10/26 02:48:08;;;;;;;5.65;2.55;;;;;;;;;;5032779;28;20059;-73
2022/10/26 02:51:20;;;;;;;7.90;2.20;;;;;;;;;;5040609;28;20033;-73
2022/10/26 02:54:17;;;;;;;6.18;2.40;;;;;;;;;;5029764;28;20033;-74
2022/10/26 02:57:07;;;;;;;9.02;3.00;;;;;;;;;;5014357;28;20387;-74
2022/10/26 02:59:52;;;;;;;7.10;2.83;;;;;;;;;;5023304;28;20091;-74
2022/10/26 03:02:37;;;;;;;8.80;2.33;;;;;;;;;;5017351;28;20021;-75
2022/10/26 03:05:27;;;;;;;5.45;2.00;;;;;;;;;;5026399;28;20034;-78
2022/10/26 03:08:12;;;;;;;;;;;;;;;;;;5032915;28;20054;-76
2022/10/26 03:10:58;;;;;;;7.10;2.03;;;;;;;;;;5037729;28;19913;-77
2022/10/26 03:13:43;;;;;;;7.05;2.97;;;;;;;;;;5033375;28;20438;-77
2022/10/26 03:16:28;;;;;;;5.55;2.35;;;;;;;;;;5039140;28;20021;-78
2022/10/26 03:19:13;;;;;;;3.70;1.98;;;;;;;;;;5029291;28;20380;-78
2022/10/26 03:21:59;;;;;;;2.28;1.63;;;;;;;;;;5024810;28;20396;-74
2022/10/26 03:24:44;;;;;;;6.40;2.33;;;;;;;;;;5030720;28;20028;-69
2022/10/26 03:27:29;;;;;;;6.32;2.55;;;;;;;;;;5027617;28;20052;-70
2022/10/26 03:30:14;;;;;;;8.30;2.17;;;;;;;;;;5035317;28;20499;-70
2022/10/26 03:33:00;;;;;;;4.18;1.90;;;;;;;;;;5026823;28;20160;-71
2022/10/26 03:35:45;;;;;;;5.05;2.40;;;;;;;;;;5027822;28;20107;-70
2022/10/26 03:38:30;;;;;;;3.90;2.03;;;;;;;;;;5033200;28;20103;-70
2022/10/26 03:41:15;;;;;;;8.50;2.30;;;;;;;;;;5027042;28;20111;-81
2022/10/26 03:44:01;;;;;;;6.63;2.15;;;;;;;;;;5023364;28;20473;-80
2022/10/26 03:46:46;;;;;;;8.43;3.55;;;;;;;;;;5028043;28;20036;-78
2022/10/26 03:49:31;;;;;;;5.00;1.80;;;;;;;;;;5024206;28;20036;-77
2022/10/26 03:52:16;;;;;;;7.72;2.10;;;;;;;;;;5025559;28;20045;-77
2022/10/26 03:55:01;;;;;;;6.35;2.40;;;;;;;;;;5027159;28;20384;-78
2022/10/26 03:57:47;;;;;;;7.20;2.00;;;;;;;;;;5027189;28;20523;-72
2022/10/26 04:00:32;;;;;;;5.03;2.40;;;;;;;;;;5018723;28;20431;-74
2022/10/26 04:03:17;;;;;;;5.20;2.30;;;;;;;;;;5033481;28;20045;-74
2022/10/26 04:06:02;;;;;;;5.03;2.05;;;;;;;;;;5025516;28;20037;-76
2022/10/26 04:08:48;;;;;;;8.32;1.98;;;;;;;;;;5027249;28;20021;-77
2022/10/26 04:11:33;;;;;;;23.60;2.35;;;;;;;;;;5040847;28;20083;-76
2022/10/26 04:14:18;;;;;;;4.68;2.13;;;;;;;;;;5028678;28;20037;-74
2022/10/26 04:17:03;;;;;;;7.35;2.58;;;;;;;;;;5027447;28;20025;-72
2022/10/26 04:19:49;;;;;;;5.68;2.40;;;;;;;;;;5007887;28;20017;-69
2022/10/26 04:22:35;;;;;;;9.52;2.80;;;;;;;;;;5032319;28;20025;-70
2022/10/26 04:25:20;;;;;;;4.82;2.22;;;;;;;;;;5028581;28;20029;-69
2022/10/26 04:28:06;;;;;;;7.90;2.17;;;;;;;;;;5015828;28;20480;-69
2022/10/26 04:30:51;;;;;;;3.72;1.85;;;;;;;;;;5028152;28;20120;-68
2022/10/26 04:33:36;;;;;;;10.02;2.50;;;;;;;;;;5024062;28;20470;-70
2022/10/26 04:36:21;;;;;;;11.25;2.40;;;;;;;;;;5030193;28;20029;-69
2022/10/26 04:39:07;;;;;;;10.60;2.40;;;;;;;;;;5033572;28;20026;-74
2022/10/26 04:41:52;;;;;;;3.20;1.60;;;;;;;;;;5033149;28;20091;-74
2022/10/26 04:44:38;;;;;;;3.63;2.10;;;;;;;;;;5024970;28;20029;-76
2022/10/26 04:47:23;;;;;;;5.75;2.45;;;;;;;;;;5029217;28;20040;-74
2022/10/26 04:50:09;;;;;;;4.00;1.83;;;;;;;;;;5023947;28;20029;-74
2022/10/26 04:52:54;;;;;;;6.72;2.55;;;;;;;;;;5019184;28;20488;-77
2022/10/26 04:55:43;;;;;;;8.65;2.40;;;;;;;;;;5033989;28;20452;-77
2022/10/26 04:58:28;;;;;;;6.00;2.80;;;;;;;;;;5028535;28;21467;-70
2022/10/26 05:01:13;;;;;;;5.20;2.05;;;;;;;;;;5028237;28;20071;-69
2022/10/26 05:03:59;;;;;;;4.70;2.33;;;;;;;;;;5014652;28;20041;-70
2022/10/26 05:06:44;;;;;;;7.55;2.30;;;;;;;;;;5034887;28;20092;-68
2022/10/26 05:09:29;;;;;;;7.45;2.53;;;;;;;;;;5029796;28;20522;-68
2022/10/26 05:12:14;;;;;;;7.78;1.88;;;;;;;;;;5037019;28;20045;-75
2022/10/26 05:14:59;;;;;;;4.70;2.13;;;;;;;;;;5039710;28;20106;-76
2022/10/26 05:17:45;;;;;;;6.55;2.58;;;;;;;;;;5030696;28;20033;-76
2022/10/26 05:20:31;;;;;;;5.70;2.70;;;;;;;;;;5041522;28;20036;-76
2022/10/26 05:23:17;;;;;;;5.20;1.80;;;;;;;;;;5030882;28;20112;-76
2022/10/26 05:26:03;;;;;;;6.07;2.15;;;;;;;;;;5019078;28;20086;-77
2022/10/26 05:28:49;;;;;;;11.32;2.13;;;;;;;;;;5028720;28;20021;-76
2022/10/26 05:31:35;;;;;;;7.40;2.20;;;;;;;;;;5024712;28;20121;-75
2022/10/26 05:34:20;;;;;;;4.90;1.83;;;;;;;;;;5036911;28;20037;-77
2022/10/26 05:37:05;;;;;;;5.85;2.53;;;;;;;;;;5023539;28;20531;-77
2022/10/26 05:39:50;;;;;;;9.07;2.67;;;;;;;;;;5037675;28;20071;-77
2022/10/26 05:42:36;;;;;;;4.22;2.85;;;;;;;;;;5040227;28;20029;-77
2022/10/26 05:45:21;;;;;;;5.10;2.65;;;;;;;;;;5019472;28;20489;-75
2022/10/26 05:48:06;;;;;;;9.45;2.90;;;;;;;;;;5032535;28;20099;-79
2022/10/26 05:50:51;;;;;;;3.83;2.08;;;;;;;;;;5016815;28;20029;-77
2022/10/26 05:53:37;;;;;;;3.67;1.63;;;;;;;;;;5025719;22;20579;-68
2022/10/26 05:56:35;;;;;;;7.43;2.28;;;;;;;;;;5008603;28;20092;-72
2022/10/26 05:59:21;;;;;;;15.57;2.60;;;;;;;;;;5021794;28;20079;-69
2022/10/26 06:02:29;;;;;;;5.22;2.53;;;;;;;;;;5011465;28;20061;-69
2022/10/26 06:05:18;;;;;;;3.67;2.28;;;;;;;;;;4995021;28;20026;-71
2022/10/26 06:08:07;;;;;;;9.55;3.42;;;;;;;;;;5019448;28;20469;-71
2022/10/26 06:10:53;;;;;;;8.38;2.70;;;;;;;;;;4998574;28;20062;-70
2022/10/26 06:13:38;;;;;;;5.40;2.00;;;;;;;;;;5006603;28;20045;-70
2022/10/26 06:16:30;;;;;;;5.97;2.17;;;;;;;;;;5006620;28;20038;-71
2022/10/26 06:19:28;;;;;;;6.10;2.47;;;;;;;;;;5017055;28;20488;-71
2022/10/26 06:22:20;;;;;;;5.63;2.33;;;;;;;;;;5020313;28;20431;-68
2022/10/26 06:25:09;;;;;;;8.63;2.25;;;;;;;;;;4999150;28;20084;-68
2022/10/26 06:28:04;;;;;;;7.07;2.25;;;;;;;;;;5024615;28;20050;-67
2022/10/26 06:30:49;;;;;;;5.70;2.35;;;;;;;;;;5008313;28;20276;-62
2022/10/26 06:33:34;;;;;;;9.90;2.50;;;;;;;;;;5005649;28;20129;-65
2022/10/26 06:36:24;;;;;;;6.28;2.85;;;;;;;;;;5011117;28;20029;-61
2022/10/26 06:39:11;;;;;;;5.38;2.70;;;;;;;;;;5005830;28;20025;-62
2022/10/26 06:41:56;;;;;;;16.20;3.03;;;;;;;;;;5011968;28;20037;-62
2022/10/26 06:44:41;;;;;;;6.45;3.00;;;;;;;;;;5008010;28;20025;-68
2022/10/26 06:47:32;;;;;;;7.22;2.50;;;;;;;;;;5006987;28;20025;-63
2022/10/26 06:50:18;;;;;;;10.32;2.38;;;;;;;;;;5007240;28;20026;-62
2022/10/26 06:53:15;;;;;;;6.45;3.10;;;;;;;;;;5007261;28;20045;-69
2022/10/26 06:56:00;;;;;;;9.38;2.40;;;;;;;;;;5006518;28;20160;-71
2022/10/26 06:58:47;;;;;;;10.93;2.58;;;;;;;;;;5018130;28;20099;-68
2022/10/26 07:01:32;;;;;;;8.90;2.60;;;;;;;;;;5015332;28;20515;-75
2022/10/26 07:04:18;;;;;;;4.93;2.17;;;;;;;;;;5022567;28;20038;-72
2022/10/26 07:07:03;;;;;;;6.75;2.35;;;;;;;;;;5022859;28;20033;-71
2022/10/26 07:09:48;;;;;;;5.72;2.25;;;;;;;;;;5020369;28;20021;-69
2022/10/26 07:12:34;;;;;;;15.65;4.78;;;;;;;;;;4993651;28;20121;-73
2022/10/26 07:15:19;;;;;;;7.35;2.63;;;;;;;;;;5022476;28;20376;-71
2022/10/26 07:18:05;;;;;;;11.20;2.97;;;;;;;;;;5005537;28;20033;-70
2022/10/26 07:20:51;;;;;;;10.75;3.55;;;;;;;;;;5003656;28;20112;-69
2022/10/26 07:23:36;;;;;;;7.75;2.20;;;;;;;;;;5019709;28;20297;-69
2022/10/26 07:26:21;;;;;;;9.30;2.47;;;;;;;;;;5010053;28;20108;-69
2022/10/26 07:29:07;;;;;;;7.75;2.88;;;;;;;;;;5006875;28;20037;-70
2022/10/26 07:31:52;;;;;;;11.43;2.40;;;;;;;;;;4994117;28;20061;-70
2022/10/26 07:34:37;;;;;;;5.65;2.40;;;;;;;;;;5005014;28;20057;-72
2022/10/26 07:37:23;;;;;;;4.80;2.20;;;;;;;;;;5000989;28;20519;-69
2022/10/26 07:40:08;;;;;;;9.60;2.83;;;;;;;;;;5021923;28;20041;-74
2022/10/26 07:42:57;;;;;;;10.35;2.90;;;;;;;;;;5005895;28;20030;-81
2022/10/26 07:45:43;;;;;;;6.07;2.40;;;;;;;;;;5002040;28;20703;-82
2022/10/26 07:48:28;;;;;;;7.30;2.58;;;;;;;;;;5005590;28;20084;-81
2022/10/26 07:51:13;;;;;;;6.60;2.25;;;;;;;;;;5021524;28;20491;-80
2022/10/26 07:53:58;;;;;;;5.85;2.03;;;;;;;;;;5004269;28;20041;-76
2022/10/26 07:56:44;;;;;;;10.25;2.30;;;;;;;;;;5004083;28;20080;-71
2022/10/26 07:59:29;;;;;;;6.32;2.20;;;;;;;;;;5006627;28;20484;-72
2022/10/26 08:02:14;;;;;;;6.35;2.28;;;;;;;;;;5004345;28;20025;-68
2022/10/26 08:04:59;;;;;;;3.55;2.00;;;;;;;;;;5003417;28;20069;-70
2022/10/26 08:07:44;;;;;;;7.13;2.30;;;;;;;;;;4998728;28;20103;-69
2022/10/26 08:10:30;;;;;;;3.33;2.08;;;;;;;;;;5005856;28;20290;-69
2022/10/26 08:13:15;;;;;;;6.05;2.40;;;;;;;;;;5006043;28;20160;-69
2022/10/26 08:16:02;;;;;;;10.60;2.80;;;;;;;;;;5007520;28;20025;-70
2022/10/26 08:18:48;;;;;;;6.38;2.53;;;;;;;;;;5007340;28;20025;-87
2022/10/26 08:21:33;;;;;;;6.47;2.72;;;;;;;;;;5005218;28;20542;-83
2022/10/26 08:24:18;;;;;;;6.05;2.85;;;;;;;;;;5004698;28;20029;-86
2022/10/26 08:27:03;;;;;;;8.40;2.70;;;;;;;;;;5006592;28;20041;-83
2022/10/26 08:29:49;;;;;;;8.10;2.60;;;;;;;;;;5010329;28;20488;-77
2022/10/26 08:32:34;;;;;;;5.13;2.25;;;;;;;;;;5008187;28;20401;-80
2022/10/26 08:35:19;;;;;;;7.40;2.33;;;;;;;;;;5003237;28;20080;-72
2022/10/26 08:38:04;;;;;;;9.98;2.75;;;;;;;;;;4998336;28;20765;-72
2022/10/26 08:40:50;;;;;;;6.45;2.72;;;;;;;;;;5022794;28;20049;-72
2022/10/26 08:43:35;;;;;;;5.03;2.30;;;;;;;;;;5005789;28;20026;-69
2022/10/26 08:46:24;;;;;;;6.03;2.63;;;;;;;;;;4991380;28;20022;-70
2022/10/26 08:49:12;;;;;;;5.97;2.25;;;;;;;;;;5015080;28;20037;-70
2022/10/26 08:52:00;;;;;;;5.35;2.20;;;;;;;;;;5018296;28;20061;-79
2022/10/26 08:54:53;;;;;;;4.45;2.13;;;;;;;;;;4999489;28;20041;-77
2022/10/26 08:57:40;;;;;;;6.32;2.47;;;;;;;;;;4992218;28;20036;-72
2022/10/26 09:00:26;;;;;;;7.07;2.22;;;;;;;;;;5003508;28;20049;-72
2022/10/26 09:03:15;;;;;;;5.13;2.00;;;;;;;;;;5019172;28;20034;-70
2022/10/26 09:06:06;;;;;;;9.30;3.38;;;;;;;;;;5021613;28;20104;-72
2022/10/26 09:09:09;;;;;;;4.57;2.30;;;;;;;;;;5006601;28;20036;-70
2022/10/26 09:12:04;;;;;;;9.60;3.08;;;;;;;;;;5018895;28;20128;-68
2022/10/26 09:14:52;;;;;;;8.40;2.42;;;;;;;;;;4999377;28;20163;-69
2022/10/26 09:17:56;;;;;;;6.07;2.35;;;;;;;;;;5011750;28;20156;-70
2022/10/26 09:20:51;;;;;;;7.00;2.30;;;;;;;;;;5016704;28;20057;-69
2022/10/26 09:23:45;;;;;;;5.95;2.63;;;;;;;;;;5019893;28;20034;-70
2022/10/26 09:26:33;;;;;;;6.15;2.22;;;;;;;;;;5020046;28;20071;-70
2022/10/26 09:29:19;;;;;;;5.45;2.30;;;;;;;;;;5010941;28;20021;-69
2022/10/26 09:34:41;;;;;;;4.38;2.20;;;;;;;;;;5032537;28;20056;-75
2022/10/26 09:37:28;;;;;;;8.50;2.80;;;;;;;;;;5008224;28;21211;-74
2022/10/26 09:40:16;;;;;;;7.05;2.35;;;;;;;;;;5015943;28;20445;-77
2022/10/26 09:43:02;;;;;;;6.72;2.10;;;;;;;;;;5014303;28;20029;-79
2022/10/26 09:45:49;;;;;;;4.95;2.13;;;;;;;;;;5017850;28;20036;-77
2022/10/26 09:48:40;;;;;;;7.07;2.17;;;;;;;;;;5000808;28;20029;-76
2022/10/26 09:51:26;;;;;;;8.13;2.25;;;;;;;;;;5015918;28;20041;-81
2022/10/26 09:54:15;;;;;;;3.80;1.88;;;;;;;;;;5020545;28;20646;-78
2022/10/26 09:57:01;;;;;;;6.38;3.10;;;;;;;;;;4998761;28;20025;-74
2022/10/26 09:59:48;;;;;;;7.70;1.83;;;;;;;;;;5007064;28;20422;-77
2022/10/26 10:02:38;;;;;;;9.00;2.28;;;;;;;;;;5018748;28;20040;-76
2022/10/26 10:05:31;;;;;;;11.40;2.55;;;;;;;;;;5018510;28;20026;-77
2022/10/26 10:08:18;;;;;;;8.05;2.25;;;;;;;;;;5000408;28;20163;-81
2022/10/26 10:11:03;;;;;;;9.88;2.30;;;;;;;;;;5016159;28;20388;-79
2022/10/26 10:13:49;;;;;;;9.85;2.50;;;;;;;;;;5000533;28;20037;-81
2022/10/26 10:16:34;;;;;;;6.80;2.08;;;;;;;;;;5011260;28;20075;-78
2022/10/26 10:19:21;;;;;;;9.45;2.22;;;;;;;;;;5000813;28;20476;-79
2022/10/26 10:22:21;;;;;;;7.35;2.17;;;;;;;;;;5000378;28;20037;-78
2022/10/26 10:25:21;;;;;;;7.78;3.17;;;;;;;;;;5027417;28;20037;-77
2022/10/26 10:28:23;;;;;;;6.15;2.15;;;;;;;;;;5003196;28;20040;-77
2022/10/26 10:31:19;;;;;;;9.45;3.20;;;;;;;;;;4999746;28;20029;-76
2022/10/26 10:34:15;;;;;;;5.55;2.53;;;;;;;;;;5009009;28;20090;-75
2022/10/26 10:37:00;;;;;;;7.03;1.92;;;;;;;;;;5031974;28;20033;-76
2022/10/26 10:39:46;;;;;;;11.63;2.10;;;;;;;;;;4995106;28;20037;-77
2022/10/26 10:42:32;;;;;;;13.18;2.33;;;;;;;;;;4995884;28;20029;-73
2022/10/26 10:45:22;;;;;;;5.50;2.40;;;;;;;;;;5005548;28;20033;-78
2022/10/26 10:48:21;;;;;;;9.10;2.10;;;;;;;;;;5000925;28;20028;-78
2022/10/26 10:51:13;;;;;;;4.05;1.90;;;;;;;;;;5014876;28;20033;-77
2022/10/26 10:53:58;;;;;;;10.98;3.33;;;;;;;;;;5020437;28;20076;-76
2022/10/26 10:56:49;;;;;;;7.72;2.13;;;;;;;;;;5005202;28;20029;-77
2022/10/26 10:59:40;;;;;;;7.68;2.25;;;;;;;;;;5002983;28;20078;-75
2022/10/26 11:02:25;;;;;;;6.28;2.08;;;;;;;;;;5021366;28;20420;-77
2022/10/26 11:05:23;;;;;;;5.15;2.05;;;;;;;;;;4999994;28;20080;-79
2022/10/26 11:08:11;;;;;;;6.95;1.75;;;;;;;;;;5010325;28;20025;-79
2022/10/26 11:10:59;;;;;;;13.27;3.17;;;;;;;;;;5005439;28;20392;-80
2022/10/26 11:13:50;;;;;;;9.98;2.70;;;;;;;;;;5005052;28;20033;-77
2022/10/26 11:17:02;;;;;;;6.57;1.98;;;;;;;;;;5014164;28;20028;-76
2022/10/26 11:19:50;;;;;;;6.43;2.33;;;;;;;;;;4984117;28;20040;-77
2022/10/26 11:22:37;;;;;;;5.97;1.92;;;;;;;;;;4999242;28;20064;-74
2022/10/26 11:25:28;;;;;;;21.65;4.53;;;;;;;;;;4999640;28;20044;-76
2022/10/26 11:28:17;;;;;;;16.80;2.78;;;;;;;;;;4998858;28;20516;-75
2022/10/26 11:31:06;;;;;;;11.60;3.28;;;;;;;;;;5001756;28;20025;-74
2022/10/26 11:34:06;;;;;;;10.13;2.90;;;;;;;;;;5032333;28;20115;-76
2022/10/26 11:36:55;;;;;;;9.10;2.17;;;;;;;;;;5014262;28;20065;-77
2022/10/26 11:40:00;;;;;;;5.15;2.38;;;;;;;;;;5013850;28;20025;-78
2022/10/26 11:42:50;;;;;;;4.03;1.63;;;;;;;;;;5001290;28;20357;-76
2022/10/26 11:45:47;;;;;;;7.93;2.67;;;;;;;;;;5004032;28;20032;-76
2022/10/26 11:48:36;;;;;;;10.55;2.92;;;;;;;;;;5002127;28;20032;-77
2022/10/26 11:51:32;;;;;;;9.57;2.13;;;;;;;;;;4998920;28;20112;-76
2022/10/26 11:54:26;;;;;;;5.45;2.03;;;;;;;;;;4997411;28;21428;-77
2022/10/26 11:57:14;;;;;;;5.28;1.80;;;;;;;;;;5011014;28;20357;-73
2022/10/26 12:00:01;;;;;;;8.65;1.90;;;;;;;;;;5008764;28;20388;-75
2022/10/26 12:02:49;;;;;;;11.63;2.78;;;;;;;;;;4994724;28;20435;-81
2022/10/26 12:05:37;;;;;;;5.80;2.35;;;;;;;;;;4999256;28;20033;-79
2022/10/26 12:08:36;;;;;;;10.32;3.03;;;;;;;;;;4996102;28;20053;-74
2022/10/26 12:11:30;;;;;;;10.70;2.42;;;;;;;;;;5006531;28;20087;-80
2022/10/26 12:14:34;;;;;;;10.70;2.55;;;;;;;;;;5002806;28;20033;-76
2022/10/26 12:17:42;;;;;;;8.45;2.80;;;;;;;;;;5001390;28;20032;-73
2022/10/26 12:20:49;;;;;;;7.70;2.30;;;;;;;;;;5007046;28;20020;-79
2022/10/26 12:23:36;;;;;;;10.70;2.13;;;;;;;;;;5023650;28;20036;-77
2022/10/26 12:26:21;;;;;;;6.35;2.05;;;;;;;;;;5013068;28;20042;-75
2022/10/26 12:29:06;;;;;;;7.30;1.88;;;;;;;;;;5002408;28;20025;-77
2022/10/26 12:31:52;;;;;;;5.65;2.13;;;;;;;;;;5002005;28;20103;-78
2022/10/26 12:34:37;;;;;;;6.53;2.90;;;;;;;;;;4997675;28;20107;-76
2022/10/26 12:37:35;;;;;;;6.35;2.15;;;;;;;;;;5002257;28;20550;-75
2022/10/26 12:40:31;;;;;;;5.32;1.63;;;;;;;;;;5009276;28;20017;-76
2022/10/26 12:43:16;;;;;;;6.95;1.83;;;;;;;;;;5003186;28;20029;-76
2022/10/26 12:46:21;;;;;;;6.47;2.08;;;;;;;;;;5011320;28;20105;-76
2022/10/26 12:49:27;;;;;;;6.25;1.80;;;;;;;;;;5017604;28;20477;-75
2022/10/26 12:52:26;;;;;;;9.13;2.05;;;;;;;;;;5013937;28;20498;-79
2022/10/26 12:55:25;;;;;;;10.15;2.92;;;;;;;;;;5003938;28;20053;-77
2022/10/26 12:58:29;;;;;;;16.58;2.85;;;;;;;;;;5000056;28;20103;-77
2022/10/26 13:01:14;;;;;;;6.60;2.45;;;;;;;;;;5019009;28;20026;-78
2022/10/26 13:04:18;;;;;;;6.32;1.90;;;;;;;;;;5004245;28;20093;-82
2022/10/26 13:07:22;;;;;;;11.25;3.03;;;;;;;;;;5011481;28;20454;-79
2022/10/26 13:10:10;;;;;;;11.02;2.78;;;;;;;;;;5018611;28;20058;-86
2022/10/26 13:12:57;;;;;;;7.38;1.77;;;;;;;;;;5002426;28;20045;-77
2022/10/26 13:15:53;;;;;;;11.52;2.10;;;;;;;;;;5003011;28;20017;-76
2022/10/26 13:18:43;;;;;;;5.32;1.85;;;;;;;;;;5014062;28;20033;-75
2022/10/26 13:21:28;;;;;;;9.27;2.30;;;;;;;;;;5001726;28;20425;-77
2022/10/26 13:24:14;;;;;;;7.18;2.47;;;;;;;;;;5004020;28;20033;-79
2022/10/26 13:27:06;;;;;;;7.93;2.13;;;;;;;;;;5003400;28;20033;-80
2022/10/26 13:30:03;;;;;;;10.40;3.88;;;;;;;;;;5016675;28;20120;-81
2022/10/26 13:32:53;;;;;;;5.63;2.20;;;;;;;;;;5000984;28;20053;-82
2022/10/26 13:35:39;;;;;;;6.63;1.67;;;;;;;;;;5015151;28;20024;-80
2022/10/26 13:38:28;;;;;;;6.65;1.75;;;;;;;;;;5015062;28;20025;-76
2022/10/26 13:41:33;;;;;;;10.27;2.70;;;;;;;;;;4997292;28;20444;-75
2022/10/26 13:44:27;;;;;;;7.38;1.95;;;;;;;;;;5009415;28;20025;-81
2022/10/26 13:47:20;;;;;;;8.15;2.65;;;;;;;;;;5014920;28;20025;-76
2022/10/26 13:50:07;;;;;;;8.48;2.28;;;;;;;;;;5001079;28;20045;-76
2022/10/26 13:52:54;;;;;;;7.22;2.08;;;;;;;;;;5004084;28;20392;-79
2022/10/26 13:55:52;;;;;;;8.38;2.35;;;;;;;;;;5017221;28;20026;-78
2022/10/26 13:58:42;;;;;;;10.02;2.80;;;;;;;;;;4999590;28;20503;-86
2022/10/26 14:01:27;;;;;;;6.32;2.05;;;;;;;;;;4998255;28;20034;-79
2022/10/26 14:04:17;;;;;;;7.30;2.13;;;;;;;;;;5005691;28;20036;-84
2022/10/26 14:07:04;;;;;;;8.95;2.28;;;;;;;;;;5003196;28;20026;-76
2022/10/26 14:09:50;;;;;;;8.48;2.15;;;;;;;;;;4999699;28;20472;-77
2022/10/26 14:12:37;;;;;;;7.57;2.47;;;;;;;;;;5003784;28;20061;-77
2022/10/26 14:15:30;;;;;;;14.90;2.35;;;;;;;;;;5014055;28;20017;-74
2022/10/26 14:18:23;;;;;;;9.45;2.67;;;;;;;;;;5011654;28;20032;-77
2022/10/26 14:21:19;;;;;;;10.80;2.28;;;;;;;;;;5002436;28;20118;-77
2022/10/26 14:24:06;;;;;;;9.02;3.20;;;;;;;;;;5000612;28;20396;-80
2022/10/26 14:26:51;;;;;;;6.90;2.13;;;;;;;;;;4998578;28;20032;-78
2022/10/26 14:29:37;;;;;;;4.53;2.15;;;;;;;;;;5014151;28;20072;-78
2022/10/26 14:32:30;;;;;;;3.72;1.90;;;;;;;;;;5006108;28;20029;-76
2022/10/26 14:35:16;;;;;;;7.55;2.20;;;;;;;;;;5011815;28;20029;-78
2022/10/26 14:38:03;;;;;;;9.38;1.85;;;;;;;;;;5012512;28;20120;-77
2022/10/26 14:40:50;;;;;;;17.15;2.97;;;;;;;;;;5011400;28;20030;-79
2022/10/26 14:43:36;;;;;;;6.63;2.17;;;;;;;;;;5015000;28;20033;-78
2022/10/26 14:46:21;;;;;;;9.90;2.60;;;;;;;;;;4995607;28;20017;-79
2022/10/26 14:49:13;;;;;;;7.32;2.28;;;;;;;;;;5012319;28;20770;-79
2022/10/26 14:52:03;;;;;;;9.98;2.85;;;;;;;;;;5012201;28;20095;-79
2022/10/26 14:54:59;;;;;;;15.35;3.47;;;;;;;;;;5028727;28;20029;-80
2022/10/26 14:57:45;;;;;;;9.77;2.90;;;;;;;;;;5000331;28;20496;-78
2022/10/26 15:00:30;;;;;;;13.30;2.72;;;;;;;;;;4997796;28;20380;-76
2022/10/26 15:03:16;;;;;;;8.73;2.80;;;;;;;;;;4997342;28;20056;-77
2022/10/26 15:06:21;;;;;;;13.23;3.65;;;;;;;;;;5024279;28;20063;-79
2022/10/26 15:09:26;;;;;;;9.93;3.95;;;;;;;;;;5003021;28;20048;-76
2022/10/26 15:12:17;;;;;;;13.57;3.10;;;;;;;;;;5011845;28;20049;-74
2022/10/26 15:15:05;;;;;;;12.38;2.92;;;;;;;;;;5011123;28;20139;-75
2022/10/26 15:17:52;;;;;;;11.52;3.08;;;;;;;;;;5014722;28;20056;-75
2022/10/26 15:20:45;;;;;;;8.07;2.30;;;;;;;;;;5003549;28;20067;-75
2022/10/26 15:23:30;;;;;;;7.47;1.98;;;;;;;;;;5002555;28;20112;-77
2022/10/26 15:26:16;;;;;;;13.88;2.30;;;;;;;;;;5002826;28;20476;-76
2022/10/26 15:29:01;;;;;;;10.15;2.70;;;;;;;;;;5006362;28;20029;-77
2022/10/26 15:31:46;;;;;;;12.40;2.97;;;;;;;;;;5019502;28;20529;-77
2022/10/26 15:34:31;;;;;;;13.05;2.80;;;;;;;;;;5004659;28;20044;-75
2022/10/26 15:37:17;;;;;;;16.42;3.13;;;;;;;;;;5014380;28;20175;-77
2022/10/26 15:40:02;;;;;;;10.23;2.80;;;;;;;;;;5014530;28;20026;-74
2022/10/26 15:42:49;;;;;;;14.63;2.35;;;;;;;;;;5005616;28;20479;-74
2022/10/26 15:45:35;;;;;;;9.88;3.42;;;;;;;;;;5009946;28;20028;-73
2022/10/26 15:48:26;;;;;;;11.60;3.90;;;;;;;;;;5002774;28;20067;-72
2022/10/26 15:51:12;;;;;;;10.77;3.47;;;;;;;;;;5006701;28;20383;-73
2022/10/26 15:53:58;;;;;;;8.82;3.40;;;;;;;;;;5001744;28;20108;-73
2022/10/26 15:56:43;;;;;;;9.70;3.20;;;;;;;;;;5019961;28;20055;-76
2022/10/26 15:59:28;;;;;;;7.40;2.70;;;;;;;;;;5000911;28;20025;-76
2022/10/26 16:02:15;;;;;;;10.07;3.13;;;;;;;;;;4999457;28;20075;-74
2022/10/26 16:05:00;;;;;;;12.02;3.15;;;;;;;;;;4999971;28;20021;-73
2022/10/26 16:07:46;;;;;;;11.32;2.67;;;;;;;;;;5012306;28;20053;-74
2022/10/26 16:10:31;;;;;;;10.15;2.55;;;;;;;;;;5006311;28;20072;-74
2022/10/26 16:13:17;;;;;;;7.72;2.95;;;;;;;;;;5012914;28;20567;-74
2022/10/26 16:16:03;;;;;;;9.10;2.72;;;;;;;;;;5013196;28;20076;-78
2022/10/26 16:18:52;;;;;;;13.75;3.13;;;;;;;;;;4997420;28;20469;-73
2022/10/26 16:21:38;;;;;;;8.27;3.40;;;;;;;;;;4999523;28;20053;-74
2022/10/26 16:24:23;;;;;;;13.18;3.58;;;;;;;;;;5009460;28;20031;-77
2022/10/26 16:27:08;;;;;;;10.80;2.67;;;;;;;;;;5014294;28;20032;-75
2022/10/26 16:29:54;;;;;;;9.30;2.80;;;;;;;;;;5021865;28;20088;-75
2022/10/26 16:32:39;;;;;;;11.57;3.67;;;;;;;;;;5003784;28;20107;-82
2022/10/26 16:35:24;;;;;;;16.58;3.58;;;;;;;;;;5000793;28;20030;-83
2022/10/26 16:38:10;;;;;;;18.35;3.22;;;;;;;;;;5028852;28;20049;-83
2022/10/26 16:41:02;;;;;;;12.13;4.90;;;;;;;;;;5000189;28;20017;-81
2022/10/26 16:43:47;;;;;;;10.02;3.00;;;;;;;;;;5003812;28;20025;-81
2022/10/26 16:46:33;;;;;;;10.80;3.50;;;;;;;;;;5017040;28;20031;-83
2022/10/26 16:49:18;;;;;;;6.22;2.78;;;;;;;;;;5011263;28;20028;-79
2022/10/26 16:52:03;;;;;;;11.73;2.88;;;;;;;;;;5001978;28;20124;-76